Time;durP1;ratioP1;P1;durP2;ratioP2;P2;SDS_P1;SDS_P2;PMS_P1;PMS_P2;Temp;Humidity;BMP_temperature;BMP_pressure;BME280_temperature;BME280_humidity;BME280_pressure;Samples;Min_cycle;Max_cycle;Signal;HPM_P1;HPM_P2
2023/04/08 00:00:43;;;;;;;;;;;;;;;8.80;nan;99883.72;4939500;29;20388;-84
2023/04/08 00:03:27;;;;;;;;;;;;;;;8.75;nan;99887.81;4938701;29;19920;-84
2023/04/08 00:06:10;;;;;;;;;;;;;;;8.97;nan;99891.59;4937067;29;20342;-85
2023/04/08 00:08:55;;;;;;;;;;;;;;;8.88;nan;99890.78;4937267;29;19921;-85
2023/04/08 00:11:38;;;;;;;;;;;;;;;9.12;nan;99886.53;4936836;29;19922;-85
2023/04/08 00:14:23;;;;;;;;;;;;;;;9.17;nan;99886.03;4951093;29;20065;-83
2023/04/08 00:17:06;;;;;;;;;;;;;;;9.32;nan;99892.22;4951317;29;19921;-83
2023/04/08 00:19:50;;;;;;;;;;;;;;;9.42;nan;99889.44;4936920;29;19921;-83
2023/04/08 00:22:35;;;;;;;;;;;;;;;9.61;nan;99887.44;4953042;29;19922;-84
2023/04/08 00:25:19;;;;;;;;;;;;;;;9.63;nan;99882.84;4937367;29;19942;-84
2023/04/08 00:28:03;;;;;;;;;;;;;;;9.75;nan;99881.53;4938939;29;19920;-85
2023/04/08 00:30:47;;;;;;;;;;;;;;;9.64;nan;99884.50;4938107;29;19917;-84
2023/04/08 00:33:31;;;;;;;;;;;;;;;9.84;nan;99883.16;4955811;29;19925;-86
2023/04/08 00:36:15;;;;;;;;;;;;;;;9.72;nan;99885.28;4955536;29;20280;-84
2023/04/08 00:38:59;;;;;;;;;;;;;;;9.89;nan;99876.56;4956594;29;20328;-86
2023/04/08 00:41:43;;;;;;;;;;;;;;;10.33;nan;99885.75;4942237;29;19973;-85
2023/04/08 00:44:27;;;;;;;;;;;;;;;10.49;nan;99885.66;4939805;29;20325;-86
2023/04/08 00:47:11;;;;;;;;;;;;;;;10.61;nan;99891.38;4942002;29;19930;-85
2023/04/08 00:49:55;;;;;;;;;;;;;;;10.52;nan;99881.88;4956234;29;19988;-85
2023/04/08 00:52:39;;;;;;;;;;;;;;;10.60;nan;99884.44;4941657;29;19970;-83
2023/04/08 00:55:23;;;;;;;;;;;;;;;10.59;nan;99893.31;4938908;29;19929;-85
2023/04/08 00:58:07;;;;;;;;;;;;;;;10.38;nan;99892.09;4941728;29;19921;-85
2023/04/08 01:00:59;;;;;;;;;;;;;;;10.42;nan;99882.94;4956194;29;19925;-83
2023/04/08 01:03:55;;;;;;;;;;;;;;;10.71;nan;99886.69;4939738;29;19926;-84
2023/04/08 01:06:41;;;;;;;;;;;;;;;10.65;nan;99879.50;4941600;29;20384;-84
2023/04/08 01:09:28;;;;;;;;;;;;;;;10.40;nan;99890.13;4941188;29;19964;-85
2023/04/08 01:12:16;;;;;;;;;;;;;;;10.29;nan;99893.94;4953797;29;20010;-85
2023/04/08 01:15:05;;;;;;;;;;;;;;;10.17;nan;99884.00;4940928;29;19938;-85
2023/04/08 01:17:51;;;;;;;;;;;;;;;10.07;nan;99886.81;4941811;29;19970;-84
2023/04/08 01:20:36;;;;;;;;;;;;;;;10.06;nan;99896.50;4955657;29;20276;-85
2023/04/08 01:23:29;;;;;;;;;;;;;;;10.08;nan;99888.47;4940176;29;20372;-83
2023/04/08 01:26:21;;;;;;;;;;;;;;;10.02;nan;99895.19;4955385;29;19953;-84
2023/04/08 01:29:06;;;;;;;;;;;;;;;10.02;nan;99892.56;4954054;29;19925;-84
2023/04/08 01:31:52;;;;;;;;;;;;;;;10.14;nan;99899.09;4940549;29;19925;-84
2023/04/08 01:34:40;;;;;;;;;;;;;;;10.19;nan;99895.97;4955521;29;20277;-86
2023/04/08 01:37:25;;;;;;;;;;;;;;;10.23;nan;99893.81;4953764;29;20061;-84
2023/04/08 01:40:09;;;;;;;;;;;;;;;9.99;nan;99888.50;4940957;29;19922;-83
2023/04/08 01:42:56;;;;;;;;;;;;;;;10.11;nan;99895.97;4954910;28;20376;-84
2023/04/08 01:45:40;;;;;;;;;;;;;;;10.19;nan;99897.75;4940831;29;20344;-83
2023/04/08 01:48:24;;;;;;;;;;;;;;;10.08;nan;99898.94;4953757;29;19970;-85
2023/04/08 01:51:10;;;;;;;;;;;;;;;9.98;nan;99904.41;4953689;29;19997;-85
2023/04/08 01:53:54;;;;;;;;;;;;;;;9.93;nan;99893.59;4954222;29;19925;-86
2023/04/08 01:56:40;;;;;;;;;;;;;;;9.89;nan;99897.56;4938377;29;19947;-84
2023/04/08 01:59:28;;;;;;;;;;;;;;;9.81;nan;99896.56;4939388;29;19961;-84
2023/04/08 02:02:14;;;;;;;;;;;;;;;9.74;nan;99900.88;4952924;29;19925;-84
2023/04/08 02:04:58;;;;;;;;;;;;;;;9.63;nan;99898.56;4938836;29;20277;-84
2023/04/08 02:07:42;;;;;;;;;;;;;;;9.52;nan;99895.34;4955105;29;19925;-84
2023/04/08 02:10:26;;;;;;;;;;;;;;;9.54;nan;99897.81;4952788;29;19961;-85
2023/04/08 02:13:10;;;;;;;;;;;;;;;9.54;nan;99901.22;4949841;29;19925;-85
2023/04/08 02:16:04;;;;;;;;;;;;;;;9.59;nan;99908.59;4939163;29;19965;-85
2023/04/08 02:19:08;;;;;;;;;;;;;;;9.52;nan;99899.75;4940263;29;19917;-85
2023/04/08 02:21:56;;;;;;;;;;;;;;;9.48;nan;99896.66;4937477;29;19964;-83
2023/04/08 02:24:39;;;;;;;;;;;;;;;9.40;nan;99899.28;4954648;29;19941;-84
2023/04/08 02:27:25;;;;;;;;;;;;;;;9.27;nan;99903.22;4936409;29;20009;-86
2023/04/08 02:30:10;;;;;;;;;;;;;;;9.24;nan;99900.13;4939858;29;20276;-85
2023/04/08 02:32:55;;;;;;;;;;;;;;;9.13;nan;99909.13;4938236;29;20327;-85
2023/04/08 02:35:40;;;;;;;;;;;;;;;9.11;nan;99911.88;4940043;29;19941;-84
2023/04/08 02:38:28;;;;;;;;;;;;;;;9.02;nan;99902.41;4937279;29;19921;-85
2023/04/08 02:41:12;;;;;;;;;;;;;;;9.10;nan;99910.25;4952888;29;19929;-86
2023/04/08 02:43:56;;;;;;;;;;;;;;;9.04;nan;99912.69;4939605;29;19977;-85
2023/04/08 02:46:41;;;;;;;;;;;;;;;8.95;nan;99915.31;4953971;29;19921;-84
2023/04/08 02:49:25;;;;;;;;;;;;;;;8.91;nan;99916.63;4939080;29;19929;-84
2023/04/08 02:52:09;;;;;;;;;;;;;;;8.87;nan;99920.56;4953801;29;19957;-84
2023/04/08 02:54:53;;;;;;;;;;;;;;;8.73;nan;99910.72;4938266;29;20018;-84
2023/04/08 02:57:38;;;;;;;;;;;;;;;8.78;nan;99921.50;4949210;29;19954;-84
2023/04/08 03:00:21;;;;;;;;;;;;;;;8.78;nan;99911.03;4938271;29;19933;-83
2023/04/08 03:03:06;;;;;;;;;;;;;;;8.68;nan;99912.03;4939144;29;19944;-83
2023/04/08 03:05:49;;;;;;;;;;;;;;;8.72;nan;99917.72;4953440;29;20049;-84
2023/04/08 03:08:33;;;;;;;;;;;;;;;8.62;nan;99917.88;4939524;29;19921;-84
2023/04/08 03:11:17;;;;;;;;;;;;;;;8.60;nan;99914.59;4938249;29;19976;-84
2023/04/08 03:14:01;;;;;;;;;;;;;;;8.64;nan;99921.16;4939115;29;19929;-83
2023/04/08 03:16:45;;;;;;;;;;;;;;;8.66;nan;99924.44;4950197;29;19961;-83
2023/04/08 03:19:29;;;;;;;;;;;;;;;8.63;nan;99918.72;4953199;29;19921;-84
2023/04/08 03:22:13;;;;;;;;;;;;;;;8.66;nan;99927.06;4937633;29;19921;-85
2023/04/08 03:24:57;;;;;;;;;;;;;;;8.61;nan;99931.13;4938735;29;19930;-83
2023/04/08 03:27:41;;;;;;;;;;;;;;;8.60;nan;99935.53;4939053;29;20188;-84
2023/04/08 03:30:25;;;;;;;;;;;;;;;8.61;nan;99934.56;4938984;29;19922;-83
2023/04/08 03:33:09;;;;;;;;;;;;;;;8.47;nan;99928.13;4938186;29;19994;-83
2023/04/08 03:35:53;;;;;;;;;;;;;;;8.46;nan;99934.31;4934935;29;19994;-84
2023/04/08 03:38:37;;;;;;;;;;;;;;;8.55;nan;99935.19;4938166;29;20009;-84
2023/04/08 03:41:21;;;;;;;;;;;;;;;8.44;nan;99939.69;4939445;29;19923;-83
2023/04/08 03:44:05;;;;;;;;;;;;;;;8.43;nan;99938.06;4952693;29;19925;-83
2023/04/08 03:46:49;;;;;;;;;;;;;;;8.35;nan;99934.59;4939654;29;19937;-84
2023/04/08 03:49:33;;;;;;;;;;;;;;;8.43;nan;99940.69;4951113;29;19920;-85
2023/04/08 03:52:17;;;;;;;;;;;;;;;8.59;nan;99941.75;4938932;29;19973;-85
2023/04/08 03:55:01;;;;;;;;;;;;;;;8.59;nan;99939.13;4939374;29;19920;-83
2023/04/08 03:57:45;;;;;;;;;;;;;;;8.56;nan;99936.84;4936263;29;19938;-84
2023/04/08 04:00:29;;;;;;;;;;;;;;;8.55;nan;99933.41;4949462;29;19921;-86
2023/04/08 04:03:13;;;;;;;;;;;;;;;8.44;nan;99931.84;4950846;29;19930;-84
2023/04/08 04:05:57;;;;;;;;;;;;;;;8.33;nan;99941.78;4939118;28;19921;-83
2023/04/08 04:08:41;;;;;;;;;;;;;;;8.19;nan;99944.03;4942432;29;19942;-85
2023/04/08 04:11:26;;;;;;;;;;;;;;;8.09;nan;99936.31;4957262;29;20399;-84
2023/04/08 04:14:10;;;;;;;;;;;;;;;7.95;nan;99948.13;4942354;29;19969;-83
2023/04/08 04:16:54;;;;;;;;;;;;;;;7.88;nan;99946.31;4956740;29;19941;-84
2023/04/08 04:19:37;;;;;;;;;;;;;;;7.77;nan;99947.41;4955297;29;19929;-84
2023/04/08 04:22:21;;;;;;;;;;;;;;;7.72;nan;99942.63;4957028;29;19929;-83
2023/04/08 04:25:06;;;;;;;;;;;;;;;7.61;nan;99945.47;4942133;29;19933;-83
2023/04/08 04:27:49;;;;;;;;;;;;;;;7.51;nan;99943.78;4939008;29;19921;-84
2023/04/08 04:30:35;;;;;;;;;;;;;;;7.48;nan;99951.09;4955920;29;19937;-84
2023/04/08 04:33:20;;;;;;;;;;;;;;;7.37;nan;99949.56;4956566;29;19933;-84
2023/04/08 04:36:04;;;;;;;;;;;;;;;7.35;nan;99946.28;4942113;29;19960;-85
2023/04/08 04:38:49;;;;;;;;;;;;;;;7.26;nan;99943.56;4941844;29;20420;-86
2023/04/08 04:41:34;;;;;;;;;;;;;;;7.26;nan;99943.56;4940718;29;20351;-84
2023/04/08 04:44:18;;;;;;;;;;;;;;;7.21;nan;99948.44;4939265;29;20002;-85
2023/04/08 04:47:02;;;;;;;;;;;;;;;7.21;nan;99945.81;4956386;29;20403;-84
2023/04/08 04:49:47;;;;;;;;;;;;;;;7.26;nan;99946.19;4940805;29;19921;-84
2023/04/08 04:52:30;;;;;;;;;;;;;;;7.32;nan;99951.81;4941356;29;20277;-84
2023/04/08 04:55:14;;;;;;;;;;;;;;;7.32;nan;99951.81;4941413;29;19921;-83
2023/04/08 04:57:59;;;;;;;;;;;;;;;7.27;nan;99958.31;4941062;29;19933;-83
2023/04/08 05:00:43;;;;;;;;;;;;;;;7.25;nan;99960.22;4941652;29;20289;-84
2023/04/08 05:03:26;;;;;;;;;;;;;;;7.27;nan;99954.84;4941442;29;19929;-83
2023/04/08 05:06:12;;;;;;;;;;;;;;;7.15;nan;99956.88;4955569;29;19965;-84
2023/04/08 05:08:55;;;;;;;;;;;;;;;7.13;nan;99961.44;4942351;29;19929;-85
2023/04/08 05:11:39;;;;;;;;;;;;;;;7.13;nan;99966.66;4955979;29;19970;-84
2023/04/08 05:14:23;;;;;;;;;;;;;;;7.05;nan;99966.56;4954918;29;19934;-85
2023/04/08 05:17:07;;;;;;;;;;;;;;;7.06;nan;99965.59;4941808;29;19950;-85
2023/04/08 05:19:52;;;;;;;;;;;;;;;7.12;nan;99967.63;4955650;29;19972;-85
2023/04/08 05:22:36;;;;;;;;;;;;;;;7.06;nan;99974.25;4941831;29;20050;-84
2023/04/08 05:25:20;;;;;;;;;;;;;;;7.06;nan;99976.03;4956242;29;19982;-85
2023/04/08 05:28:04;;;;;;;;;;;;;;;7.06;nan;99979.47;4940819;29;19936;-86
2023/04/08 05:30:50;;;;;;;;;;;;;;;7.22;nan;99984.03;4940103;29;19955;-85
2023/04/08 05:33:34;;;;;;;;;;;;;;;7.24;nan;99976.84;4938932;29;20002;-84
2023/04/08 05:36:18;;;;;;;;;;;;;;;7.34;nan;99986.44;4940169;29;19937;-85
2023/04/08 05:39:02;;;;;;;;;;;;;;;7.38;nan;99991.22;4955835;29;19921;-83
2023/04/08 05:41:46;;;;;;;;;;;;;;;7.40;nan;99991.88;4940226;29;20432;-84
2023/04/08 05:44:30;;;;;;;;;;;;;;;7.48;nan;99995.50;4955974;29;19937;-86
2023/04/08 05:47:14;;;;;;;;;;;;;;;7.43;nan;99994.19;4937823;29;19937;-86
2023/04/08 05:49:58;;;;;;;;;;;;;;;7.48;nan;99996.34;4941558;29;19937;-86
2023/04/08 05:52:45;;;;;;;;;;;;;;;7.59;nan;99997.91;4954884;29;19929;-85
2023/04/08 05:55:29;;;;;;;;;;;;;;;7.58;nan;99998.88;4954091;29;19922;-85
2023/04/08 05:58:13;;;;;;;;;;;;;;;7.77;nan;100000.47;4940979;29;19925;-85
2023/04/08 06:00:58;;;;;;;;;;;;;;;7.82;nan;100006.06;4941414;29;19937;-84
2023/04/08 06:03:42;;;;;;;;;;;;;;;7.82;nan;100010.47;4939718;29;20384;-84
2023/04/08 06:06:26;;;;;;;;;;;;;;;7.96;nan;100006.50;4939383;29;20441;-85
2023/04/08 06:09:10;;;;;;;;;;;;;;;7.81;nan;100014.88;4940635;29;20013;-84
2023/04/08 06:11:55;;;;;;;;;;;;;;;8.05;nan;100013.41;4952903;29;19921;-85
2023/04/08 06:14:39;;;;;;;;;;;;;;;8.04;nan;100009.16;4954585;29;19969;-83
2023/04/08 06:17:23;;;;;;;;;;;;;;;8.02;nan;100015.53;4940048;29;20387;-85
2023/04/08 06:20:10;;;;;;;;;;;;;;;7.95;nan;100015.31;4941720;29;20383;-85
2023/04/08 06:22:54;;;;;;;;;;;;;;;8.05;nan;100018.63;4941908;29;20283;-85
2023/04/08 06:25:39;;;;;;;;;;;;;;;8.09;nan;100017.38;4941259;29;19966;-86
2023/04/08 06:28:23;;;;;;;;;;;;;;;8.08;nan;100027.97;4954607;29;20444;-85
2023/04/08 06:31:06;;;;;;;;;;;;;;;8.14;nan;100024.72;4940214;29;20379;-87
2023/04/08 06:33:51;;;;;;;;;;;;;;;8.28;nan;100034.63;4956004;29;19930;-89
2023/04/08 06:36:35;;;;;;;;;;;;;;;8.35;nan;100031.38;4941803;29;19961;-89
2023/04/08 06:39:20;;;;;;;;;;;;;;;8.47;nan;100034.59;4939764;29;19921;-87
2023/04/08 06:42:05;;;;;;;;;;;;;;;8.55;nan;100039.88;4941391;29;19925;-87
2023/04/08 06:44:48;;;;;;;;;;;;;;;8.55;nan;100042.50;4941260;29;19957;-87
2023/04/08 06:47:32;;;;;;;;;;;;;;;8.66;nan;100044.84;4939098;29;19964;-87
2023/04/08 06:50:16;;;;;;;;;;;;;;;8.66;nan;100044.00;4941275;29;19929;-89
2023/04/08 06:53:28;;;;;;;;;;;;;;;8.84;nan;100047.34;4956138;29;19926;-90
2023/04/08 06:56:12;;;;;;;;;;;;;;;8.81;nan;100052.91;4955746;29;20010;-88
2023/04/08 06:58:57;;;;;;;;;;;;;;;8.92;nan;100050.97;4940079;29;19922;-88
2023/04/08 07:01:41;;;;;;;;;;;;;;;9.41;nan;100055.50;4941589;29;19961;-86
2023/04/08 07:04:25;;;;;;;;;;;;;;;9.92;nan;100055.38;4941113;29;20046;-87
2023/04/08 07:07:09;;;;;;;;;;;;;;;10.02;nan;100055.19;4941074;29;19920;-89
2023/04/08 07:09:53;;;;;;;;;;;;;;;10.08;nan;100051.94;4938719;29;19922;-85
2023/04/08 07:12:37;;;;;;;;;;;;;;;10.19;nan;100057.81;4937262;29;19926;-85
2023/04/08 07:15:21;;;;;;;;;;;;;;;10.20;nan;100062.06;4936923;29;19921;-86
2023/04/08 07:18:05;;;;;;;;;;;;;;;10.19;nan;100056.00;4951797;29;19941;-85
2023/04/08 07:20:50;;;;;;;;;;;;;;;10.25;nan;100055.34;4937830;29;19920;-85
2023/04/08 07:23:33;;;;;;;;;;;;;;;10.34;nan;100063.22;4937539;29;20056;-86
2023/04/08 07:26:18;;;;;;;;;;;;;;;10.28;nan;100067.31;4939247;29;20053;-87
2023/04/08 07:29:01;;;;;;;;;;;;;;;10.45;nan;100069.94;4951621;29;20002;-88
2023/04/08 07:31:52;;;;;;;;;;;;;;;10.55;nan;100071.38;4938212;29;20429;-90
2023/04/08 07:34:36;;;;;;;;;;;;;;;10.65;nan;100071.19;4943055;29;20005;-82
2023/04/08 07:37:20;;;;;;;;;;;;;;;10.71;nan;100069.69;4953773;29;19961;-85
2023/04/08 07:40:07;;;;;;;;;;;;;;;10.82;nan;100081.63;4935019;29;19921;-88
2023/04/08 07:42:54;;;;;;;;;;;;;;;10.91;nan;100079.78;4937634;29;20094;-86
2023/04/08 07:45:39;;;;;;;;;;;;;;;10.89;nan;100079.97;4952124;29;19921;-87
2023/04/08 07:48:24;;;;;;;;;;;;;;;10.94;nan;100088.13;4938455;29;19960;-88
2023/04/08 07:51:09;;;;;;;;;;;;;;;11.06;nan;100079.88;4935340;29;19985;-85
2023/04/08 07:53:53;;;;;;;;;;;;;;;11.03;nan;100082.84;4939573;29;19973;-88
2023/04/08 07:56:39;;;;;;;;;;;;;;;10.89;nan;100087.00;4937905;29;20089;-83
2023/04/08 07:59:23;;;;;;;;;;;;;;;11.06;nan;100091.19;4934530;29;19922;-84
2023/04/08 08:02:07;;;;;;;;;;;;;;;10.91;nan;100085.84;4948068;29;19922;-85
2023/04/08 08:04:51;;;;;;;;;;;;;;;11.18;nan;100080.31;4934972;29;20054;-84
2023/04/08 08:07:35;;;;;;;;;;;;;;;11.32;nan;100087.47;4934799;29;19921;-88
2023/04/08 08:10:19;;;;;;;;;;;;;;;11.42;nan;100082.00;4936097;29;19965;-88
2023/04/08 08:13:04;;;;;;;;;;;;;;;11.46;nan;100083.28;4938620;29;19977;-87
2023/04/08 08:15:52;;;;;;;;;;;;;;;11.52;nan;100087.81;4947404;29;19925;-88
2023/04/08 08:18:38;;;;;;;;;;;;;;;11.65;nan;100089.06;4934190;29;20008;-88
2023/04/08 08:21:22;;;;;;;;;;;;;;;11.67;nan;100090.50;4938157;29;20043;-88
2023/04/08 08:24:06;;;;;;;;;;;;;;;11.59;nan;100093.19;4935569;29;19928;-89
2023/04/08 08:26:50;;;;;;;;;;;;;;;11.62;nan;100103.38;4953545;29;19934;-89
2023/04/08 08:29:35;;;;;;;;;;;;;;;11.77;nan;100090.25;4952558;29;19920;-89
2023/04/08 08:32:19;;;;;;;;;;;;;;;11.81;nan;100088.94;4933926;29;19933;-89
2023/04/08 08:35:03;;;;;;;;;;;;;;;11.74;nan;100092.44;4952797;29;19929;-89
2023/04/08 08:37:47;;;;;;;;;;;;;;;11.76;nan;100090.47;4937734;29;19921;-89
2023/04/08 08:40:31;;;;;;;;;;;;;;;11.61;nan;100090.41;4936235;29;19921;-88
2023/04/08 08:43:15;;;;;;;;;;;;;;;11.39;nan;100092.81;4950225;29;20328;-88
2023/04/08 08:45:59;;;;;;;;;;;;;;;11.57;nan;100097.81;4947489;29;20280;-88
2023/04/08 08:48:43;;;;;;;;;;;;;;;11.58;nan;100097.63;4950606;29;19921;-88
2023/04/08 08:51:27;;;;;;;;;;;;;;;11.63;nan;100104.19;4937381;29;20002;-89
2023/04/08 08:54:13;;;;;;;;;;;;;;;11.64;nan;100101.38;4939818;29;19929;-89
2023/04/08 08:56:57;;;;;;;;;;;;;;;11.60;nan;100101.94;4942521;29;20009;-89
2023/04/08 08:59:41;;;;;;;;;;;;;;;11.51;nan;100109.84;4940924;29;19936;-88
2023/04/08 09:02:27;;;;;;;;;;;;;;;11.66;nan;100109.09;4937402;29;19977;-87
2023/04/08 09:05:11;;;;;;;;;;;;;;;11.47;nan;100105.09;4940271;29;19969;-89
2023/04/08 09:07:56;;;;;;;;;;;;;;;11.84;nan;100106.16;4938375;29;21628;-90
2023/04/08 09:10:40;;;;;;;;;;;;;;;11.88;nan;100104.00;4938698;29;19932;-87
2023/04/08 09:13:24;;;;;;;;;;;;;;;11.83;nan;100105.38;4942245;29;19973;-86
2023/04/08 09:16:09;;;;;;;;;;;;;;;11.90;nan;100102.03;4938591;29;19926;-87
2023/04/08 09:18:53;;;;;;;;;;;;;;;12.05;nan;100112.59;4941871;29;19916;-87
2023/04/08 09:21:39;;;;;;;;;;;;;;;12.16;nan;100111.38;4943122;29;20352;-88
2023/04/08 09:24:30;;;;;;;;;;;;;;;12.20;nan;100110.84;4940167;29;19961;-89
2023/04/08 09:27:14;;;;;;;;;;;;;;;12.19;nan;100108.41;4940182;29;19965;-89
2023/04/08 09:30:14;;;;;;;;;;;;;;;12.21;nan;100111.66;4938815;29;19938;-88
2023/04/08 09:33:00;;;;;;;;;;;;;;;12.36;nan;100117.75;4942000;29;19997;-89
2023/04/08 09:35:45;;;;;;;;;;;;;;;12.30;nan;100109.78;4940710;29;19921;-88
2023/04/08 09:38:29;;;;;;;;;;;;;;;12.40;nan;100112.97;4939092;29;19933;-89
2023/04/08 09:41:15;;;;;;;;;;;;;;;12.59;nan;100116.91;4942515;29;19921;-92
2023/04/08 09:44:00;;;;;;;;;;;;;;;12.70;nan;100111.16;4944569;29;20285;-91
2023/04/08 09:46:48;;;;;;;;;;;;;;;12.79;nan;100108.44;4942712;29;20331;-91
2023/04/08 09:49:54;;;;;;;;;;;;;;;12.91;nan;100112.22;4937312;29;19977;-90
2023/04/08 09:52:53;;;;;;;;;;;;;;;13.04;nan;100116.84;4940288;29;19941;-89
2023/04/08 09:55:38;;;;;;;;;;;;;;;13.11;nan;100107.22;4941800;29;19939;-92
2023/04/08 09:58:31;;;;;;;;;;;;;;;13.42;nan;100114.03;4941465;29;19957;-90
2023/04/08 10:01:21;;;;;;;;;;;;;;;13.84;nan;100116.91;4944043;29;20411;-91
2023/04/08 10:04:09;;;;;;;;;;;;;;;14.11;nan;100100.50;4940812;29;20427;-89
2023/04/08 10:06:57;;;;;;;;;;;;;;;14.16;nan;100107.84;4936089;29;19920;-90
2023/04/08 10:09:42;;;;;;;;;;;;;;;14.19;nan;100104.81;4957805;29;20005;-90
2023/04/08 10:12:26;;;;;;;;;;;;;;;14.35;nan;100109.00;4940160;29;19973;-90
2023/04/08 10:15:26;;;;;;;;;;;;;;;14.15;nan;100104.38;4941169;29;19965;-89
2023/04/08 10:18:10;;;;;;;;;;;;;;;14.46;nan;100097.06;4939726;29;20008;-90
2023/04/08 10:20:54;;;;;;;;;;;;;;;14.79;nan;100097.28;4939431;29;19962;-91
2023/04/08 10:24:05;;;;;;;;;;;;;;;14.78;nan;100089.56;4940183;29;20392;-89
2023/04/08 10:26:49;;;;;;;;;;;;;;;14.57;nan;100096.53;4939811;29;19933;-89
2023/04/08 10:29:32;;;;;;;;;;;;;;;14.94;nan;100088.41;4954554;29;19929;-89
2023/04/08 10:32:27;;;;;;;;;;;;;;;15.20;nan;100087.69;4938698;29;19977;-90
2023/04/08 10:35:11;;;;;;;;;;;;;;;15.30;nan;100089.13;4939838;29;19929;-88
2023/04/08 10:37:56;;;;;;;;;;;;;;;15.34;nan;100088.53;4940161;29;19914;-90
2023/04/08 10:40:52;;;;;;;;;;;;;;;15.11;nan;100083.56;4940731;29;19921;-89
2023/04/08 10:43:36;;;;;;;;;;;;;;;15.42;nan;100088.31;4938111;29;19965;-89
2023/04/08 10:46:21;;;;;;;;;;;;;;;15.51;nan;100085.50;4940191;29;19921;-90
2023/04/08 10:49:05;;;;;;;;;;;;;;;15.52;nan;100074.69;4954805;29;20411;-91
2023/04/08 10:51:50;;;;;;;;;;;;;;;15.41;nan;100088.53;4939276;29;19952;-90
2023/04/08 10:54:33;;;;;;;;;;;;;;;15.49;nan;100074.31;4939987;29;19961;-88
2023/04/08 10:57:24;;;;;;;;;;;;;;;15.51;nan;100088.16;4939370;29;19921;-89
2023/04/08 11:00:16;;;;;;;;;;;;;;;15.50;nan;100083.88;4939397;29;19922;-89
2023/04/08 11:03:10;;;;;;;;;;;;;;;15.27;nan;100085.06;4939779;29;20337;-89
2023/04/08 11:05:56;;;;;;;;;;;;;;;15.30;nan;100063.50;4953517;29;19921;-90
2023/04/08 11:08:41;;;;;;;;;;;;;;;15.43;nan;100070.63;4952643;29;19920;-89
2023/04/08 11:11:28;;;;;;;;;;;;;;;15.17;nan;100066.94;4938761;29;19966;-90
2023/04/08 11:14:12;;;;;;;;;;;;;;;15.45;nan;100068.59;4938949;29;19959;-89
2023/04/08 11:16:56;;;;;;;;;;;;;;;15.52;nan;100064.13;4953350;28;20088;-88
2023/04/08 11:19:40;;;;;;;;;;;;;;;15.34;nan;100064.72;4953648;29;19921;-90
2023/04/08 11:22:24;;;;;;;;;;;;;;;15.68;nan;100056.81;4938019;29;19937;-90
2023/04/08 11:25:09;;;;;;;;;;;;;;;15.81;nan;100056.81;4938097;29;19965;-88
2023/04/08 11:27:53;;;;;;;;;;;;;;;15.59;nan;100058.03;4938031;29;20284;-90
2023/04/08 11:30:38;;;;;;;;;;;;;;;15.77;nan;100055.59;4940521;29;20445;-88
2023/04/08 11:33:23;;;;;;;;;;;;;;;15.78;nan;100057.22;4944029;29;20277;-87
2023/04/08 11:36:08;;;;;;;;;;;;;;;15.75;nan;100057.66;4940057;29;19973;-89
2023/04/08 11:38:55;;;;;;;;;;;;;;;15.75;nan;100056.81;4937625;29;19982;-89
2023/04/08 11:41:47;;;;;;;;;;;;;;;15.87;nan;100051.72;4954299;29;19922;-87
2023/04/08 11:44:34;;;;;;;;;;;;;;;15.55;nan;100057.63;4937842;29;19961;-89
2023/04/08 11:47:19;;;;;;;;;;;;;;;15.76;nan;100053.97;4939768;29;20404;-88
2023/04/08 11:53:50;;;;;;;;;;;;;;;15.81;nan;100048.88;4953717;29;20428;-88
2023/04/08 11:56:45;;;;;;;;;;;;;;;16.08;nan;100056.81;4939654;29;19965;-90
2023/04/08 11:59:30;;;;;;;;;;;;;;;16.03;nan;100047.91;4942914;29;20065;-87
2023/04/08 12:02:13;;;;;;;;;;;;;;;16.00;nan;100054.41;4954627;29;19929;-87
2023/04/08 12:04:57;;;;;;;;;;;;;;;16.03;nan;100054.00;4939968;29;20029;-87
2023/04/08 12:07:42;;;;;;;;;;;;;;;16.25;nan;100048.44;4958483;29;20432;-87
2023/04/08 12:10:25;;;;;;;;;;;;;;;16.35;nan;100051.50;4939974;29;20392;-86
2023/04/08 12:13:09;;;;;;;;;;;;;;;16.36;nan;100047.81;4939571;29;19974;-87
2023/04/08 12:15:53;;;;;;;;;;;;;;;16.53;nan;100042.06;4939576;29;19966;-87
2023/04/08 12:18:37;;;;;;;;;;;;;;;16.04;nan;100045.03;4939487;29;19922;-86
2023/04/08 12:21:21;;;;;;;;;;;;;;;16.31;nan;100038.88;4938299;29;20122;-85
2023/04/08 12:24:05;;;;;;;;;;;;;;;16.35;nan;100040.06;4939575;29;20380;-88
2023/04/08 12:26:49;;;;;;;;;;;;;;;16.51;nan;100038.81;4947574;28;20010;-85
2023/04/08 12:29:33;;;;;;;;;;;;;;;16.54;nan;100038.41;4943619;29;20432;-90
2023/04/08 12:32:17;;;;;;;;;;;;;;;16.64;nan;100037.97;4943344;29;20012;-88
2023/04/08 12:35:01;;;;;;;;;;;;;;;16.58;nan;100029.00;4943546;29;19969;-88
2023/04/08 12:37:45;;;;;;;;;;;;;;;16.66;nan;100036.72;4942703;29;20041;-87
2023/04/08 12:40:29;;;;;;;;;;;;;;;16.50;nan;100039.81;4941764;29;19920;-88
2023/04/08 12:43:13;;;;;;;;;;;;;;;16.73;nan;100030.59;4950506;29;19965;-87
2023/04/08 12:45:57;;;;;;;;;;;;;;;16.88;nan;100031.09;4937845;29;19994;-85
2023/04/08 12:48:43;;;;;;;;;;;;;;;16.73;nan;100035.88;4940915;29;20288;-85
2023/04/08 12:51:28;;;;;;;;;;;;;;;16.94;nan;100038.22;4952718;29;19969;-85
2023/04/08 12:54:12;;;;;;;;;;;;;;;16.76;nan;100028.31;4935082;29;19926;-88
2023/04/08 12:56:56;;;;;;;;;;;;;;;16.68;nan;100032.00;4940134;29;19965;-86
2023/04/08 12:59:40;;;;;;;;;;;;;;;16.82;nan;100027.47;4940838;29;19922;-86
2023/04/08 13:02:52;;;;;;;;;;;;;;;16.92;nan;100029.69;4952396;29;19966;-84
2023/04/08 13:05:37;;;;;;;;;;;;;;;16.88;nan;100025.78;4955461;29;19953;-87
2023/04/08 13:08:21;;;;;;;;;;;;;;;16.64;nan;100022.84;4956107;29;19921;-89
2023/04/08 13:11:05;;;;;;;;;;;;;;;16.83;nan;100020.31;4942398;29;20340;-90
2023/04/08 13:13:49;;;;;;;;;;;;;;;16.79;nan;100027.06;4955313;29;19929;-86
2023/04/08 13:16:33;;;;;;;;;;;;;;;16.93;nan;100026.00;4951653;29;19970;-86
2023/04/08 13:19:17;;;;;;;;;;;;;;;16.52;nan;100025.34;4940842;29;20004;-87
2023/04/08 13:22:01;;;;;;;;;;;;;;;16.74;nan;100021.59;4939994;29;19921;-84
2023/04/08 13:24:45;;;;;;;;;;;;;;;16.94;nan;100017.00;4937955;29;19969;-86
2023/04/08 13:27:29;;;;;;;;;;;;;;;16.87;nan;100021.53;4942540;29;19921;-85
2023/04/08 13:30:13;;;;;;;;;;;;;;;16.96;nan;100016.78;4943200;29;19922;-86
2023/04/08 13:32:57;;;;;;;;;;;;;;;17.15;nan;100012.44;4955317;29;20061;-86
2023/04/08 13:35:41;;;;;;;;;;;;;;;17.28;nan;100011.53;4937868;29;19922;-89
2023/04/08 13:38:26;;;;;;;;;;;;;;;17.25;nan;100012.75;4941158;28;20332;-85
2023/04/08 13:41:09;;;;;;;;;;;;;;;17.26;nan;100009.06;4941209;29;19921;-86
2023/04/08 13:43:53;;;;;;;;;;;;;;;17.05;nan;100001.47;4940282;29;19966;-87
2023/04/08 13:46:38;;;;;;;;;;;;;;;17.11;nan;100006.72;4940917;29;19965;-87
2023/04/08 13:49:22;;;;;;;;;;;;;;;17.33;nan;100002.94;4940354;29;19925;-84
2023/04/08 13:52:09;;;;;;;;;;;;;;;17.35;nan;99998.22;4941692;29;19920;-85
2023/04/08 13:54:53;;;;;;;;;;;;;;;17.51;nan;100000.34;4955342;29;19961;-85
2023/04/08 13:57:37;;;;;;;;;;;;;;;17.23;nan;99996.25;4953859;29;20388;-83
2023/04/08 14:00:21;;;;;;;;;;;;;;;17.60;nan;99992.09;4933357;29;20424;-83
2023/04/08 14:03:05;;;;;;;;;;;;;;;17.54;nan;99994.59;4937038;29;20387;-84
2023/04/08 14:05:52;;;;;;;;;;;;;;;16.98;nan;99989.06;4948944;29;20006;-83
2023/04/08 14:08:36;;;;;;;;;;;;;;;17.47;nan;99990.38;4938792;29;19923;-86
2023/04/08 14:11:20;;;;;;;;;;;;;;;17.57;nan;99990.69;4941658;29;19940;-87
2023/04/08 14:14:04;;;;;;;;;;;;;;;17.48;nan;99987.47;4959816;29;20024;-84
2023/04/08 14:16:49;;;;;;;;;;;;;;;17.43;nan;99984.66;4940295;29;19921;-83
2023/04/08 14:19:33;;;;;;;;;;;;;;;17.54;nan;99980.50;4939240;29;20009;-85
2023/04/08 14:22:17;;;;;;;;;;;;;;;17.72;nan;99982.41;4953754;29;19985;-83
2023/04/08 14:25:01;;;;;;;;;;;;;;;17.63;nan;99976.56;4940111;29;19981;-84
2023/04/08 14:27:46;;;;;;;;;;;;;;;17.70;nan;99979.16;4938046;29;20296;-86
2023/04/08 14:30:30;;;;;;;;;;;;;;;17.85;nan;99974.28;4954380;29;19997;-87
2023/04/08 14:33:17;;;;;;;;;;;;;;;17.81;nan;99975.75;4939645;29;19926;-84
2023/04/08 14:36:01;;;;;;;;;;;;;;;17.82;nan;99981.91;4951176;29;20556;-86
2023/04/08 14:38:45;;;;;;;;;;;;;;;17.74;nan;99982.16;4952799;29;20392;-87
2023/04/08 14:41:29;;;;;;;;;;;;;;;17.81;nan;99967.78;4939667;29;19920;-85
2023/04/08 14:44:16;;;;;;;;;;;;;;;17.70;nan;99977.28;4940384;29;20387;-88